sensor_id;sensor_type;location;lat;lon;timestamp;pressure;altitude;pressure_sealevel;temperature;humidity
64066;BME280;50318;54.760;9.408;2022-08-19T00:01:56;100872.69;;;22.76;71.28
64066;BME280;50318;54.760;9.408;2022-08-19T00:04:26;100874.94;;;22.77;70.38
64066;BME280;50318;54.760;9.408;2022-08-19T00:06:53;100874.63;;;22.81;70.82
64066;BME280;50318;54.760;9.408;2022-08-19T00:09:21;100887.56;;;22.84;71.15
64066;BME280;50318;54.760;9.408;2022-08-19T00:11:47;100883.50;;;22.85;70.45
64066;BME280;50318;54.760;9.408;2022-08-19T00:14:15;100885.31;;;22.82;70.83
64066;BME280;50318;54.760;9.408;2022-08-19T00:16:43;100884.56;;;22.82;70.72
64066;BME280;50318;54.760;9.408;2022-08-19T00:19:09;100885.81;;;22.81;71.10
64066;BME280;50318;54.760;9.408;2022-08-19T00:21:35;100868.38;;;22.75;70.47
64066;BME280;50318;54.760;9.408;2022-08-19T00:24:07;100878.72;;;22.80;70.57
64066;BME280;50318;54.760;9.408;2022-08-19T00:26:33;100864.50;;;22.78;71.12
64066;BME280;50318;54.760;9.408;2022-08-19T00:28:59;100867.84;;;22.76;70.08
64066;BME280;50318;54.760;9.408;2022-08-19T00:31:26;100865.28;;;22.78;70.85
64066;BME280;50318;54.760;9.408;2022-08-19T00:33:53;100872.69;;;22.76;70.64
64066;BME280;50318;54.760;9.408;2022-08-19T00:36:19;100873.50;;;22.71;71.09
64066;BME280;50318;54.760;9.408;2022-08-19T00:38:47;100873.50;;;22.71;70.51
64066;BME280;50318;54.760;9.408;2022-08-19T00:41:16;100871.41;;;22.77;70.92
64066;BME280;50318;54.760;9.408;2022-08-19T00:43:49;100872.69;;;22.76;70.45
64066;BME280;50318;54.760;9.408;2022-08-19T00:46:21;100857.72;;;22.73;70.28
64066;BME280;50318;54.760;9.408;2022-08-19T00:48:47;100853.91;;;22.71;70.91
64066;BME280;50318;54.760;9.408;2022-08-19T00:51:12;100859.75;;;22.73;70.07
64066;BME280;50318;54.760;9.408;2022-08-19T00:53:38;100859.06;;;22.66;70.07
64066;BME280;50318;54.760;9.408;2022-08-19T00:56:05;100868.66;;;22.71;70.97
64066;BME280;50318;54.760;9.408;2022-08-19T00:58:34;100864.44;;;22.64;70.63
64066;BME280;50318;54.760;9.408;2022-08-19T01:01:01;100866.47;;;22.64;70.47
64066;BME280;50318;54.760;9.408;2022-08-19T01:03:27;100865.72;;;22.63;70.56
64066;BME280;50318;54.760;9.408;2022-08-19T01:05:53;100854.09;;;22.59;70.58
64066;BME280;50318;54.760;9.408;2022-08-19T01:08:20;100852.28;;;22.62;70.32
64066;BME280;50318;54.760;9.408;2022-08-19T01:10:56;100859.06;;;22.66;71.06
64066;BME280;50318;54.760;9.408;2022-08-19T01:13:27;100853.03;;;22.62;70.70
64066;BME280;50318;54.760;9.408;2022-08-19T01:15:59;100858.31;;;22.66;70.92
64066;BME280;50318;54.760;9.408;2022-08-19T01:18:26;100869.19;;;22.70;70.11
64066;BME280;50318;54.760;9.408;2022-08-19T01:21:32;100861.56;;;22.70;70.12
64066;BME280;50318;54.760;9.408;2022-08-19T01:23:59;100859.81;;;22.67;70.37
64066;BME280;50318;54.760;9.408;2022-08-19T01:26:26;100853.47;;;22.66;70.55
64066;BME280;50318;54.760;9.408;2022-08-19T01:28:56;100861.66;;;22.64;69.90
64066;BME280;50318;54.760;9.408;2022-08-19T01:31:25;100856.38;;;22.61;70.62
64066;BME280;50318;54.760;9.408;2022-08-19T01:33:53;100853.47;;;22.66;70.91
64066;BME280;50318;54.760;9.408;2022-08-19T01:38:53;100849.25;;;22.60;71.00
64066;BME280;50318;54.760;9.408;2022-08-19T01:41:19;100856.38;;;22.61;70.14
64066;BME280;50318;54.760;9.408;2022-08-19T01:43:46;100844.44;;;22.60;70.25
64066;BME280;50318;54.760;9.408;2022-08-19T01:46:12;100850.84;;;22.55;70.17
64066;BME280;50318;54.760;9.408;2022-08-19T01:48:41;100849.56;;;22.56;70.53
64066;BME280;50318;54.760;9.408;2022-08-19T01:51:08;100856.00;;;22.51;70.29
64066;BME280;50318;54.760;9.408;2022-08-19T01:53:34;100850.19;;;22.49;70.27
64066;BME280;50318;54.760;9.408;2022-08-19T01:56:00;100848.44;;;22.46;70.44
64066;BME280;50318;54.760;9.408;2022-08-19T01:58:35;100844.44;;;22.42;70.56
64066;BME280;50318;54.760;9.408;2022-08-19T02:01:03;100849.72;;;22.45;70.88
64066;BME280;50318;54.760;9.408;2022-08-19T02:03:29;100840.97;;;22.35;70.29
64066;BME280;50318;54.760;9.408;2022-08-19T02:05:59;100847.75;;;22.40;70.17
64066;BME280;50318;54.760;9.408;2022-08-19T02:08:29;100850.56;;;22.40;70.63
64066;BME280;50318;54.760;9.408;2022-08-19T02:10:55;100845.81;;;22.35;70.22
64066;BME280;50318;54.760;9.408;2022-08-19T02:13:24;100856.53;;;22.31;70.23
64066;BME280;50318;54.760;9.408;2022-08-19T02:16:10;100850.72;;;22.29;70.82
64066;BME280;50318;54.760;9.408;2022-08-19T02:18:36;100848.97;;;22.26;69.65
64066;BME280;50318;54.760;9.408;2022-08-19T02:21:02;100847.97;;;22.23;70.71
64066;BME280;50318;54.760;9.408;2022-08-19T02:23:28;100851.25;;;22.27;70.20
64066;BME280;50318;54.760;9.408;2022-08-19T02:25:53;100840.88;;;22.22;70.81
64066;BME280;50318;54.760;9.408;2022-08-19T02:28:19;100842.16;;;22.21;70.47
64066;BME280;50318;54.760;9.408;2022-08-19T02:30:46;100846.25;;;22.20;70.55
64066;BME280;50318;54.760;9.408;2022-08-19T02:33:12;100847.00;;;22.21;70.65
64066;BME280;50318;54.760;9.408;2022-08-19T02:35:42;100832.03;;;22.18;71.03
64066;BME280;50318;54.760;9.408;2022-08-19T02:38:08;100840.34;;;22.24;69.71
64066;BME280;50318;54.760;9.408;2022-08-19T02:40:58;100843.66;;;22.22;70.14
64066;BME280;50318;54.760;9.408;2022-08-19T02:43:25;100841.19;;;22.19;70.63
64066;BME280;50318;54.760;9.408;2022-08-19T02:45:51;100836.44;;;22.14;70.53
64066;BME280;50318;54.760;9.408;2022-08-19T02:48:22;100833.94;;;22.10;71.00
64066;BME280;50318;54.760;9.408;2022-08-19T02:50:50;100837.19;;;22.14;70.87
64066;BME280;50318;54.760;9.408;2022-08-19T02:53:22;100839.44;;;22.16;70.46
64066;BME280;50318;54.760;9.408;2022-08-19T02:55:49;100831.06;;;22.16;70.71
64066;BME280;50318;54.760;9.408;2022-08-19T02:58:15;100827.81;;;22.12;70.61
64066;BME280;50318;54.760;9.408;2022-08-19T03:00:44;100829.31;;;22.13;70.27
64066;BME280;50318;54.760;9.408;2022-08-19T03:03:10;100825.56;;;22.10;70.14
64066;BME280;50318;54.760;9.408;2022-08-19T03:05:36;100834.00;;;22.04;70.90
64066;BME280;50318;54.760;9.408;2022-08-19T03:08:02;100843.41;;;22.01;71.12
64066;BME280;50318;54.760;9.408;2022-08-19T03:10:28;100827.69;;;21.98;70.68
64066;BME280;50318;54.760;9.408;2022-08-19T03:12:54;100835.31;;;21.98;70.62
64066;BME280;50318;54.760;9.408;2022-08-19T03:15:20;100831.50;;;22.01;70.79
64066;BME280;50318;54.760;9.408;2022-08-19T03:17:45;100823.63;;;21.99;71.04
64066;BME280;50318;54.760;9.408;2022-08-19T03:20:11;100824.63;;;22.02;71.16
64066;BME280;50318;54.760;9.408;2022-08-19T03:22:39;100828.69;;;22.01;71.04
64066;BME280;50318;54.760;9.408;2022-08-19T03:25:05;100829.94;;;22.05;70.98
64066;BME280;50318;54.760;9.408;2022-08-19T03:27:30;100824.91;;;21.98;70.88
64066;BME280;50318;54.760;9.408;2022-08-19T03:29:56;100830.97;;;22.02;70.68
64066;BME280;50318;54.760;9.408;2022-08-19T03:32:22;100838.53;;;22.08;70.65
64066;BME280;50318;54.760;9.408;2022-08-19T03:34:48;100838.78;;;22.10;70.73
64066;BME280;50318;54.760;9.408;2022-08-19T03:37:14;100818.78;;;22.00;71.05
64066;BME280;50318;54.760;9.408;2022-08-19T03:39:40;100830.38;;;22.10;70.74
64066;BME280;50318;54.760;9.408;2022-08-19T03:42:08;100825.78;;;22.12;70.99
64066;BME280;50318;54.760;9.408;2022-08-19T03:44:34;100828.50;;;22.18;70.38
64066;BME280;50318;54.760;9.408;2022-08-19T03:47:03;100830.00;;;22.19;70.71
64066;BME280;50318;54.760;9.408;2022-08-19T03:49:30;100827.97;;;22.19;70.26
64066;BME280;50318;54.760;9.408;2022-08-19T03:52:01;100833.56;;;22.19;70.47
64066;BME280;50318;54.760;9.408;2022-08-19T03:54:28;100818.38;;;22.15;70.48
64066;BME280;50318;54.760;9.408;2022-08-19T03:56:55;100813.03;;;22.17;70.43
64066;BME280;50318;54.760;9.408;2022-08-19T03:59:25;100819.06;;;22.21;70.70
64066;BME280;50318;54.760;9.408;2022-08-19T04:02:00;100810.69;;;22.21;70.67
64066;BME280;50318;54.760;9.408;2022-08-19T04:04:46;100807.66;;;22.19;70.20
64066;BME280;50318;54.760;9.408;2022-08-19T04:07:13;100807.44;;;22.17;71.03
64066;BME280;50318;54.760;9.408;2022-08-19T04:09:47;100818.59;;;22.17;70.30
64066;BME280;50318;54.760;9.408;2022-08-19T04:12:13;100824.94;;;22.17;71.22
64066;BME280;50318;54.760;9.408;2022-08-19T04:14:45;100828.28;;;22.16;70.32
64066;BME280;50318;54.760;9.408;2022-08-19T04:17:11;100827.75;;;22.17;70.30
64066;BME280;50318;54.760;9.408;2022-08-19T04:19:39;100828.81;;;22.14;69.91
64066;BME280;50318;54.760;9.408;2022-08-19T04:22:26;100839.66;;;22.18;70.00
64066;BME280;50318;54.760;9.408;2022-08-19T04:24:51;100832.66;;;22.11;70.95
64066;BME280;50318;54.760;9.408;2022-08-19T04:27:17;100831.59;;;22.14;70.65
64066;BME280;50318;54.760;9.408;2022-08-19T04:29:42;100831.06;;;22.16;70.71
64066;BME280;50318;54.760;9.408;2022-08-19T04:32:08;100840.97;;;22.17;70.89
64066;BME280;50318;54.760;9.408;2022-08-19T04:34:34;100840.97;;;22.17;70.59
64066;BME280;50318;54.760;9.408;2022-08-19T04:36:59;100853.63;;;22.18;71.17
64066;BME280;50318;54.760;9.408;2022-08-19T04:39:28;100853.63;;;22.18;70.86
64066;BME280;50318;54.760;9.408;2022-08-19T04:42:14;100855.75;;;22.12;70.83
64066;BME280;50318;54.760;9.408;2022-08-19T04:44:59;100872.75;;;22.14;70.63
64066;BME280;50318;54.760;9.408;2022-08-19T04:47:24;100870.69;;;22.14;71.13
64066;BME280;50318;54.760;9.408;2022-08-19T04:49:50;100871.47;;;22.15;70.58
64066;BME280;50318;54.760;9.408;2022-08-19T04:52:39;100883.38;;;22.15;70.47
64066;BME280;50318;54.760;9.408;2022-08-19T04:55:09;100880.06;;;22.17;70.75
64066;BME280;50318;54.760;9.408;2022-08-19T04:57:36;100889.72;;;22.16;71.16
64066;BME280;50318;54.760;9.408;2022-08-19T05:00:05;100880.06;;;22.17;71.01
64066;BME280;50318;54.760;9.408;2022-08-19T05:02:31;100883.38;;;22.15;70.42
64066;BME280;50318;54.760;9.408;2022-08-19T05:04:58;100898.34;;;22.18;70.92
64066;BME280;50318;54.760;9.408;2022-08-19T05:07:26;100901.44;;;22.14;70.08
64066;BME280;50318;54.760;9.408;2022-08-19T05:09:52;100896.38;;;22.13;70.97
64066;BME280;50318;54.760;9.408;2022-08-19T05:12:18;100908.75;;;22.17;70.54
64066;BME280;50318;54.760;9.408;2022-08-19T05:14:45;100913.88;;;22.13;70.68
64066;BME280;50318;54.760;9.408;2022-08-19T05:17:16;100921.66;;;22.20;70.88
64066;BME280;50318;54.760;9.408;2022-08-19T05:19:41;100926.50;;;22.20;70.41
64066;BME280;50318;54.760;9.408;2022-08-19T05:22:25;100934.31;;;22.27;70.92
64066;BME280;50318;54.760;9.408;2022-08-19T05:24:58;100933.03;;;22.28;70.90
64066;BME280;50318;54.760;9.408;2022-08-19T05:27:24;100928.72;;;22.27;70.75
64066;BME280;50318;54.760;9.408;2022-08-19T05:29:50;100923.59;;;22.31;70.97
64066;BME280;50318;54.760;9.408;2022-08-19T05:32:15;100926.84;;;22.35;70.69
64066;BME280;50318;54.760;9.408;2022-08-19T05:34:41;100926.63;;;22.33;70.26
64066;BME280;50318;54.760;9.408;2022-08-19T05:37:07;100925.09;;;22.32;70.26
64066;BME280;50318;54.760;9.408;2022-08-19T05:39:35;100930.38;;;22.35;70.65
64066;BME280;50318;54.760;9.408;2022-08-19T05:42:07;100929.63;;;22.35;70.03
64066;BME280;50318;54.760;9.408;2022-08-19T05:44:35;100921.03;;;22.33;70.73
64066;BME280;50318;54.760;9.408;2022-08-19T05:47:04;100929.94;;;22.31;70.51
64066;BME280;50318;54.760;9.408;2022-08-19T05:49:33;100924.81;;;22.35;70.70
64066;BME280;50318;54.760;9.408;2022-08-19T05:52:02;100939.22;;;22.40;70.37
64066;BME280;50318;54.760;9.408;2022-08-19T05:54:28;100926.00;;;22.40;70.74
64066;BME280;50318;54.760;9.408;2022-08-19T05:56:55;100924.94;;;22.43;70.10
64066;BME280;50318;54.760;9.408;2022-08-19T05:59:21;100912.25;;;22.42;69.91
64066;BME280;50318;54.760;9.408;2022-08-19T06:01:48;100922.09;;;22.49;70.57
64066;BME280;50318;54.760;9.408;2022-08-19T06:04:19;100912.72;;;22.46;69.87
64066;BME280;50318;54.760;9.408;2022-08-19T06:06:46;100928.69;;;22.51;69.98
64066;BME280;50318;54.760;9.408;2022-08-19T06:09:13;100921.34;;;22.48;69.95
64066;BME280;50318;54.760;9.408;2022-08-19T06:11:42;100927.16;;;22.50;70.28
64066;BME280;50318;54.760;9.408;2022-08-19T06:14:25;100927.41;;;22.52;69.82
64066;BME280;50318;54.760;9.408;2022-08-19T06:16:51;100925.81;;;22.57;70.11
64066;BME280;50318;54.760;9.408;2022-08-19T06:19:19;100929.97;;;22.50;70.11
64066;BME280;50318;54.760;9.408;2022-08-19T06:21:47;100934.94;;;22.57;69.88
64066;BME280;50318;54.760;9.408;2022-08-19T06:24:17;100941.53;;;22.60;69.75
64066;BME280;50318;54.760;9.408;2022-08-19T06:26:45;100931.09;;;22.60;70.15
64066;BME280;50318;54.760;9.408;2022-08-19T06:29:13;100938.72;;;22.60;69.88
64066;BME280;50318;54.760;9.408;2022-08-19T06:31:45;100936.47;;;22.58;69.99
64066;BME280;50318;54.760;9.408;2022-08-19T06:34:32;100934.94;;;22.57;69.43
64066;BME280;50318;54.760;9.408;2022-08-19T06:36:59;100930.41;;;22.54;70.16
64066;BME280;50318;54.760;9.408;2022-08-19T06:39:31;100936.47;;;22.58;70.18
64066;BME280;50318;54.760;9.408;2022-08-19T06:42:00;100931.09;;;22.60;69.88
64066;BME280;50318;54.760;9.408;2022-08-19T06:44:31;100924.44;;;22.63;70.69
64066;BME280;50318;54.760;9.408;2022-08-19T06:47:04;100930.03;;;22.63;70.00
64066;BME280;50318;54.760;9.408;2022-08-19T06:49:30;100925.41;;;22.66;70.22
64066;BME280;50318;54.760;9.408;2022-08-19T06:51:57;100926.94;;;22.67;70.52
64066;BME280;50318;54.760;9.408;2022-08-19T06:54:24;100916.06;;;22.63;70.52
64066;BME280;50318;54.760;9.408;2022-08-19T06:56:49;100920.56;;;22.66;70.04
64066;BME280;50318;54.760;9.408;2022-08-19T06:59:21;100923.06;;;22.70;70.63
64066;BME280;50318;54.760;9.408;2022-08-19T07:01:53;100914.41;;;22.74;70.41
64066;BME280;50318;54.760;9.408;2022-08-19T07:04:22;100920.44;;;22.78;69.76
64066;BME280;50318;54.760;9.408;2022-08-19T07:06:49;100921.19;;;22.78;69.80
64066;BME280;50318;54.760;9.408;2022-08-19T07:09:17;100932.56;;;22.86;70.73
64066;BME280;50318;54.760;9.408;2022-08-19T07:11:45;100941.16;;;22.88;70.28
64066;BME280;50318;54.760;9.408;2022-08-19T07:14:11;100935.78;;;22.90;69.95
64066;BME280;50318;54.760;9.408;2022-08-19T07:16:37;100936.84;;;22.87;70.35
64066;BME280;50318;54.760;9.408;2022-08-19T07:19:03;100940.31;;;22.93;69.64
64066;BME280;50318;54.760;9.408;2022-08-19T07:21:28;100934.72;;;22.93;69.79
64066;BME280;50318;54.760;9.408;2022-08-19T07:23:58;100931.13;;;22.98;69.87
64066;BME280;50318;54.760;9.408;2022-08-19T07:26:31;100932.00;;;23.06;70.13
64066;BME280;50318;54.760;9.408;2022-08-19T07:28:57;100930.31;;;23.16;69.86
64066;BME280;50318;54.760;9.408;2022-08-19T07:31:26;100926.38;;;23.25;69.83
64066;BME280;50318;54.760;9.408;2022-08-19T07:33:53;100928.84;;;23.28;69.35
64066;BME280;50318;54.760;9.408;2022-08-19T07:36:23;100943.94;;;23.39;69.86
64066;BME280;50318;54.760;9.408;2022-08-19T07:38:50;100940.75;;;23.48;69.68
64066;BME280;50318;54.760;9.408;2022-08-19T07:41:22;100938.53;;;23.60;69.83
64066;BME280;50318;54.760;9.408;2022-08-19T07:43:49;100950.84;;;23.70;68.66
64066;BME280;50318;54.760;9.408;2022-08-19T07:46:16;100950.75;;;23.75;67.98
64066;BME280;50318;54.760;9.408;2022-08-19T07:48:43;100933.59;;;23.66;68.81
64066;BME280;50318;54.760;9.408;2022-08-19T07:51:14;100957.75;;;23.82;68.94
64066;BME280;50318;54.760;9.408;2022-08-19T07:53:41;100955.47;;;23.80;67.75
64066;BME280;50318;54.760;9.408;2022-08-19T07:56:06;100961.53;;;23.84;67.64
64066;BME280;50318;54.760;9.408;2022-08-19T07:58:35;100963.25;;;23.87;68.88
64066;BME280;50318;54.760;9.408;2022-08-19T08:01:02;100962.69;;;23.89;68.01
64066;BME280;50318;54.760;9.408;2022-08-19T08:03:28;100967.13;;;23.84;68.24
64066;BME280;50318;54.760;9.408;2022-08-19T08:06:14;100963.13;;;23.80;68.07
64066;BME280;50318;54.760;9.408;2022-08-19T08:09:00;100976.59;;;23.81;67.99
64066;BME280;50318;54.760;9.408;2022-08-19T08:14:42;100977.13;;;23.80;68.06
64066;BME280;50318;54.760;9.408;2022-08-19T08:17:09;100978.66;;;23.81;68.67
64066;BME280;50318;54.760;9.408;2022-08-19T08:19:36;100974.97;;;23.86;68.91
64066;BME280;50318;54.760;9.408;2022-08-19T08:22:02;100978.00;;;23.88;68.32
64066;BME280;50318;54.760;9.408;2022-08-19T08:24:30;100979.50;;;23.89;68.15
64066;BME280;50318;54.760;9.408;2022-08-19T08:26:57;100984.59;;;23.91;69.25
64066;BME280;50318;54.760;9.408;2022-08-19T08:29:28;100966.03;;;23.87;68.75
64066;BME280;50318;54.760;9.408;2022-08-19T08:31:55;100977.50;;;24.03;68.97
64066;BME280;50318;54.760;9.408;2022-08-19T08:34:21;100976.84;;;24.10;68.40
64066;BME280;50318;54.760;9.408;2022-08-19T08:36:47;100984.63;;;24.17;68.19
64066;BME280;50318;54.760;9.408;2022-08-19T08:39:15;100976.22;;;24.17;68.98
64066;BME280;50318;54.760;9.408;2022-08-19T08:47:00;100960.50;;;24.40;67.87
64066;BME280;50318;54.760;9.408;2022-08-19T08:52:12;100973.94;;;24.68;66.67
64066;BME280;50318;54.760;9.408;2022-08-19T08:54:43;100969.50;;;24.73;65.96
64066;BME280;50318;54.760;9.408;2022-08-19T08:57:14;100965.47;;;24.82;66.18
64066;BME280;50318;54.760;9.408;2022-08-19T08:59:43;100974.53;;;24.88;66.75
64066;BME280;50318;54.760;9.408;2022-08-19T09:02:17;100974.81;;;24.97;66.40
64066;BME280;50318;54.760;9.408;2022-08-19T09:04:43;100975.81;;;25.00;66.08
64066;BME280;50318;54.760;9.408;2022-08-19T09:10:02;100978.31;;;24.90;64.95
64066;BME280;50318;54.760;9.408;2022-08-19T09:15:13;100986.75;;;24.77;65.61
64066;BME280;50318;54.760;9.408;2022-08-19T09:17:39;100976.19;;;24.70;65.59
64066;BME280;50318;54.760;9.408;2022-08-19T09:20:14;100980.28;;;24.69;65.81
64066;BME280;50318;54.760;9.408;2022-08-19T09:22:41;100995.63;;;24.68;66.56
64066;BME280;50318;54.760;9.408;2022-08-19T09:25:14;100980.09;;;24.67;66.48
64066;BME280;50318;54.760;9.408;2022-08-19T09:27:41;100994.88;;;24.67;65.85
64066;BME280;50318;54.760;9.408;2022-08-19T09:30:10;100992.59;;;24.66;65.97
64066;BME280;50318;54.760;9.408;2022-08-19T09:32:36;100980.72;;;24.60;66.28
64066;BME280;50318;54.760;9.408;2022-08-19T09:35:02;100994.75;;;24.60;66.28
64066;BME280;50318;54.760;9.408;2022-08-19T09:37:27;100991.09;;;24.65;67.33
64066;BME280;50318;54.760;9.408;2022-08-19T09:39:53;100978.88;;;24.75;66.72
64066;BME280;50318;54.760;9.408;2022-08-19T09:42:19;100982.63;;;24.91;67.42
64066;BME280;50318;54.760;9.408;2022-08-19T09:44:45;100983.22;;;25.11;67.04
64066;BME280;50318;54.760;9.408;2022-08-19T09:47:12;100983.38;;;25.26;65.62
64066;BME280;50318;54.760;9.408;2022-08-19T09:49:39;100986.28;;;25.33;66.31
64066;BME280;50318;54.760;9.408;2022-08-19T09:52:08;100991.59;;;25.45;64.98
64066;BME280;50318;54.760;9.408;2022-08-19T09:54:34;100986.06;;;25.52;65.55
64066;BME280;50318;54.760;9.408;2022-08-19T09:57:00;100979.97;;;25.61;63.84
64066;BME280;50318;54.760;9.408;2022-08-19T09:59:27;100984.97;;;25.55;64.39
64066;BME280;50318;54.760;9.408;2022-08-19T10:01:52;100984.53;;;25.51;64.44
64066;BME280;50318;54.760;9.408;2022-08-19T10:04:21;100994.06;;;25.48;63.90
64066;BME280;50318;54.760;9.408;2022-08-19T10:06:48;100998.31;;;25.42;64.00
64066;BME280;50318;54.760;9.408;2022-08-19T10:09:16;100996.63;;;25.38;64.93
64066;BME280;50318;54.760;9.408;2022-08-19T10:11:44;100995.84;;;25.38;65.03
64066;BME280;50318;54.760;9.408;2022-08-19T10:14:15;100988.75;;;25.37;65.25
64066;BME280;50318;54.760;9.408;2022-08-19T10:16:42;100984.22;;;25.34;65.05
64066;BME280;50318;54.760;9.408;2022-08-19T10:19:08;100989.28;;;25.35;65.29
64066;BME280;50318;54.760;9.408;2022-08-19T10:21:35;100979.47;;;25.29;65.01
64066;BME280;50318;54.760;9.408;2022-08-19T10:24:04;100981.66;;;25.23;65.00
64066;BME280;50318;54.760;9.408;2022-08-19T10:26:35;100991.03;;;25.25;64.60
64066;BME280;50318;54.760;9.408;2022-08-19T10:29:03;100995.50;;;25.21;65.33
64066;BME280;50318;54.760;9.408;2022-08-19T10:31:31;100992.81;;;25.15;65.07
64066;BME280;50318;54.760;9.408;2022-08-19T10:33:58;100987.56;;;25.12;65.71
64066;BME280;50318;54.760;9.408;2022-08-19T10:36:28;100984.94;;;25.14;65.90
64066;BME280;50318;54.760;9.408;2022-08-19T10:38:58;100979.19;;;25.19;65.59
64066;BME280;50318;54.760;9.408;2022-08-19T10:41:28;100985.78;;;25.22;65.38
64066;BME280;50318;54.760;9.408;2022-08-19T10:43:57;100978.09;;;25.22;65.85
64066;BME280;50318;54.760;9.408;2022-08-19T10:46:25;100978.72;;;25.28;65.51
64066;BME280;50318;54.760;9.408;2022-08-19T10:48:52;100980.66;;;25.33;64.86
64066;BME280;50318;54.760;9.408;2022-08-19T10:51:18;100975.91;;;25.28;64.53
64066;BME280;50318;54.760;9.408;2022-08-19T10:54:03;100978.03;;;25.15;64.56
64066;BME280;50318;54.760;9.408;2022-08-19T10:56:30;100973.31;;;25.09;64.63
64066;BME280;50318;54.760;9.408;2022-08-19T10:59:16;100972.56;;;25.09;66.05
64066;BME280;50318;54.760;9.408;2022-08-19T11:01:44;100977.06;;;25.12;66.21
64066;BME280;50318;54.760;9.408;2022-08-19T11:04:11;100967.34;;;25.13;65.57
64066;BME280;50318;54.760;9.408;2022-08-19T11:06:42;100970.03;;;25.19;65.59
64066;BME280;50318;54.760;9.408;2022-08-19T11:09:09;100969.06;;;25.16;64.73
64066;BME280;50318;54.760;9.408;2022-08-19T11:11:36;100972.63;;;25.17;65.33
64066;BME280;50318;54.760;9.408;2022-08-19T11:14:06;100963.31;;;25.22;65.33
64066;BME280;50318;54.760;9.408;2022-08-19T11:16:32;100964.47;;;25.26;65.31
64066;BME280;50318;54.760;9.408;2022-08-19T11:18:58;100970.59;;;25.38;65.47
64066;BME280;50318;54.760;9.408;2022-08-19T11:23:55;100969.00;;;25.50;65.34
64066;BME280;50318;54.760;9.408;2022-08-19T11:26:21;100959.47;;;25.53;64.65
64066;BME280;50318;54.760;9.408;2022-08-19T11:28:48;100965.84;;;25.54;63.68
64066;BME280;50318;54.760;9.408;2022-08-19T11:31:20;100964.34;;;25.53;63.50
64066;BME280;50318;54.760;9.408;2022-08-19T11:33:46;100974.81;;;25.52;64.04
64066;BME280;50318;54.760;9.408;2022-08-19T11:36:12;100956.13;;;25.55;64.08
64066;BME280;50318;54.760;9.408;2022-08-19T11:38:38;100963.19;;;25.69;63.69
64066;BME280;50318;54.760;9.408;2022-08-19T11:41:06;100964.56;;;25.76;63.89
64066;BME280;50318;54.760;9.408;2022-08-19T11:43:34;100964.63;;;25.83;63.25
64066;BME280;50318;54.760;9.408;2022-08-19T11:45:59;100964.06;;;25.85;62.29
64066;BME280;50318;54.760;9.408;2022-08-19T11:48:28;100962.78;;;25.86;62.71
64066;BME280;50318;54.760;9.408;2022-08-19T11:50:54;100966.88;;;25.85;62.58
64066;BME280;50318;54.760;9.408;2022-08-19T11:53:22;100971.19;;;25.86;63.09
64066;BME280;50318;54.760;9.408;2022-08-19T11:55:48;100965.03;;;25.87;63.48
64066;BME280;50318;54.760;9.408;2022-08-19T11:58:15;100958.25;;;25.83;63.33
64066;BME280;50318;54.760;9.408;2022-08-19T12:00:53;100948.91;;;25.88;62.82
64066;BME280;50318;54.760;9.408;2022-08-19T12:03:18;100955.53;;;25.98;62.96
64066;BME280;50318;54.760;9.408;2022-08-19T12:05:45;100954.50;;;26.09;63.20
64066;BME280;50318;54.760;9.408;2022-08-19T12:08:11;100946.28;;;26.18;62.96
64066;BME280;50318;54.760;9.408;2022-08-19T12:10:39;100944.81;;;26.25;63.41
64066;BME280;50318;54.760;9.408;2022-08-19T12:13:05;100939.25;;;26.33;61.28
64066;BME280;50318;54.760;9.408;2022-08-19T12:15:36;100955.41;;;26.40;61.92
64066;BME280;50318;54.760;9.408;2022-08-19T12:18:02;100961.81;;;26.40;61.25
64066;BME280;50318;54.760;9.408;2022-08-19T12:20:28;100969.84;;;26.36;61.17
64066;BME280;50318;54.760;9.408;2022-08-19T12:22:53;100947.97;;;26.21;61.41
64066;BME280;50318;54.760;9.408;2022-08-19T12:25:19;100945.91;;;26.14;61.48
64066;BME280;50318;54.760;9.408;2022-08-19T12:27:46;100953.22;;;26.17;61.97
64066;BME280;50318;54.760;9.408;2022-08-19T12:30:13;100948.50;;;26.12;62.73
64066;BME280;50318;54.760;9.408;2022-08-19T12:32:39;100953.22;;;26.17;62.72
64066;BME280;50318;54.760;9.408;2022-08-19T12:35:06;100954.72;;;26.18;62.89
64066;BME280;50318;54.760;9.408;2022-08-19T12:37:32;100951.56;;;26.22;62.38
64066;BME280;50318;54.760;9.408;2022-08-19T12:39:58;100958.53;;;26.28;62.47
64066;BME280;50318;54.760;9.408;2022-08-19T12:42:23;100939.06;;;26.30;61.80
64066;BME280;50318;54.760;9.408;2022-08-19T12:44:51;100957.13;;;26.43;61.69
64066;BME280;50318;54.760;9.408;2022-08-19T12:47:18;100946.22;;;26.39;60.74
64066;BME280;50318;54.760;9.408;2022-08-19T12:49:43;100956.72;;;26.39;60.71
64066;BME280;50318;54.760;9.408;2022-08-19T12:52:10;100955.63;;;26.42;61.06
64066;BME280;50318;54.760;9.408;2022-08-19T12:54:37;100953.56;;;26.42;61.23
64066;BME280;50318;54.760;9.408;2022-08-19T12:57:07;100955.13;;;26.51;61.80
64066;BME280;50318;54.760;9.408;2022-08-19T12:59:37;100949.69;;;26.53;60.81
64066;BME280;50318;54.760;9.408;2022-08-19T13:02:05;100948.00;;;26.57;60.58
64066;BME280;50318;54.760;9.408;2022-08-19T13:04:54;100942.75;;;26.61;59.64
64066;BME280;50318;54.760;9.408;2022-08-19T13:07:20;100947.09;;;26.63;61.03
64066;BME280;50318;54.760;9.408;2022-08-19T13:09:46;100956.47;;;26.65;60.59
64066;BME280;50318;54.760;9.408;2022-08-19T13:12:12;100960.59;;;26.64;60.70
64066;BME280;50318;54.760;9.408;2022-08-19T13:14:39;100956.66;;;26.67;60.46
64066;BME280;50318;54.760;9.408;2022-08-19T13:17:06;100961.16;;;26.70;60.23
64066;BME280;50318;54.760;9.408;2022-08-19T13:19:32;100953.47;;;26.71;60.54